Time;durP1;ratioP1;P1;durP2;ratioP2;P2;SDS_P1;SDS_P2;PMS_P1;PMS_P2;Temp;Humidity;BMP_temperature;BMP_pressure;BME280_temperature;BME280_humidity;BME280_pressure;Samples;Min_cycle;Max_cycle;Signal;HPM_P1;HPM_P2
2022/10/04 00:01:30;;;;;;;0.68;0.63;;;20.20;49.10;;;;;;5051457;28;20049;-11
2022/10/04 00:04:10;;;;;;;1.10;0.60;;;20.30;49.10;;;;;;5051160;28;20052;-11
2022/10/04 00:06:43;;;;;;;1.08;0.73;;;20.30;49.10;;;;;;5051243;28;20414;-11
2022/10/04 00:09:17;;;;;;;0.82;0.63;;;20.30;49.10;;;;;;5051438;28;20060;-11
2022/10/04 00:11:45;;;;;;;0.88;0.70;;;20.30;49.10;;;;;;5052001;28;20070;-11
2022/10/04 00:14:42;;;;;;;1.27;0.50;;;20.30;49.10;;;;;;5051251;28;20755;-11
2022/10/04 00:17:17;;;;;;;1.80;0.70;;;20.20;49.10;;;;;;5050921;28;20049;-11
2022/10/04 00:19:46;;;;;;;1.25;0.65;;;20.30;49.10;;;;;;5051116;28;20452;-11
2022/10/04 00:22:17;;;;;;;1.10;0.75;;;20.20;49.10;;;;;;5051193;28;20462;-11
2022/10/04 00:25:19;;;;;;;0.63;0.55;;;20.20;49.10;;;;;;5051595;28;20045;-11
2022/10/04 00:28:14;;;;;;;0.60;0.60;;;20.30;49.10;;;;;;5051117;28;20471;-11
2022/10/04 00:30:39;;;;;;;1.50;0.90;;;20.20;49.20;;;;;;5051480;28;20079;-11
2022/10/04 00:33:05;;;;;;;1.17;0.70;;;20.30;49.20;;;;;;5051531;28;20085;-11
2022/10/04 00:35:31;;;;;;;1.25;0.85;;;20.20;49.10;;;;;;5051687;28;20053;-11
2022/10/04 00:38:05;;;;;;;1.25;0.65;;;20.20;49.70;;;;;;5050888;28;20052;-11
2022/10/04 00:40:49;;;;;;;0.77;0.60;;;20.20;49.20;;;;;;5051699;28;20049;-11
2022/10/04 00:43:21;;;;;;;0.65;0.60;;;20.20;49.20;;;;;;5051125;28;20070;-11
2022/10/04 00:45:52;;;;;;;0.70;0.50;;;20.20;49.20;;;;;;5051080;28;20056;-11
2022/10/04 00:48:40;;;;;;;0.70;0.70;;;20.20;49.20;;;;;;5051211;28;20060;-11
2022/10/04 00:51:23;;;;;;;1.15;0.60;;;20.20;49.10;;;;;;5050714;28;20056;-11
2022/10/04 00:54:05;;;;;;;0.80;0.60;;;20.20;49.10;;;;;;5050749;28;20052;-11
2022/10/04 00:56:47;;;;;;;1.42;1.00;;;20.20;49.10;;;;;;5051073;28;20102;-11
2022/10/04 00:59:27;;;;;;;1.10;0.90;;;20.20;49.20;;;;;;5050823;28;20063;-11
2022/10/04 01:01:59;;;;;;;0.65;0.60;;;20.20;49.20;;;;;;5051064;28;20081;-11
2022/10/04 01:04:35;;;;;;;1.88;0.63;;;20.20;49.20;;;;;;5050002;28;20045;-11
2022/10/04 01:07:03;;;;;;;1.48;0.82;;;20.20;49.20;;;;;;5050634;28;20490;-11
2022/10/04 01:09:32;;;;;;;0.93;0.70;;;20.20;49.20;;;;;;5050714;28;20064;-11
2022/10/04 01:12:30;;;;;;;0.63;0.55;;;20.20;49.20;;;;;;5050725;28;20060;-11
2022/10/04 01:15:13;;;;;;;0.88;0.73;;;20.20;49.20;;;;;;5050740;28;20451;-11
2022/10/04 01:17:39;;;;;;;0.85;0.80;;;20.20;49.20;;;;;;5050713;28;20143;-11
2022/10/04 01:20:29;;;;;;;2.13;0.80;;;20.20;49.20;;;;;;5050442;28;20139;-11
2022/10/04 01:22:55;;;;;;;1.25;0.70;;;20.20;49.20;;;;;;5050994;28;20140;-11
2022/10/04 01:25:43;;;;;;;0.82;0.65;;;20.20;49.20;;;;;;5050650;28;20132;-11
2022/10/04 01:28:09;;;;;;;0.57;0.55;;;20.20;49.20;;;;;;5050186;28;20067;-11
2022/10/04 01:30:34;;;;;;;1.73;1.05;;;20.20;49.20;;;;;;5050473;28;20041;-11
2022/10/04 01:33:00;;;;;;;0.98;0.50;;;20.20;49.20;;;;;;5050561;28;20143;-11
2022/10/04 01:35:27;;;;;;;0.70;0.60;;;20.20;49.20;;;;;;5050548;28;20048;-11
2022/10/04 01:37:54;;;;;;;1.73;0.80;;;20.20;49.20;;;;;;5050359;28;20061;-11
2022/10/04 01:40:20;;;;;;;0.50;0.50;;;20.20;49.20;;;;;;5050782;28;20049;-11
2022/10/04 01:42:54;;;;;;;1.02;0.60;;;20.20;49.30;;;;;;5050830;28;20053;-11
2022/10/04 01:45:39;;;;;;;0.82;0.75;;;20.20;49.30;;;;;;5050340;28;20064;-11
2022/10/04 01:48:09;;;;;;;1.00;0.70;;;20.20;49.30;;;;;;5050576;28;20060;-9
2022/10/04 01:50:56;;;;;;;0.60;0.50;;;20.20;49.30;;;;;;5050724;28;20044;-9
2022/10/04 01:53:33;;;;;;;1.15;0.55;;;20.20;49.30;;;;;;5050692;28;20097;-9
2022/10/04 01:56:11;;;;;;;0.82;0.60;;;20.20;49.30;;;;;;5050664;28;20197;-9
2022/10/04 01:59:03;;;;;;;1.10;0.60;;;20.20;49.30;;;;;;5049931;28;20061;-11
2022/10/04 02:01:54;;;;;;;1.30;0.80;;;20.20;49.30;;;;;;5050541;28;20049;-11
2022/10/04 02:04:28;;;;;;;0.90;0.60;;;20.20;49.20;;;;;;5050090;28;20048;-11
2022/10/04 02:06:57;;;;;;;1.60;0.70;;;20.20;49.20;;;;;;5049930;28;20410;-11
2022/10/04 02:09:29;;;;;;;0.90;0.70;;;20.20;49.20;;;;;;5050283;28;20109;-11
2022/10/04 02:11:57;;;;;;;0.70;0.65;;;20.20;49.20;;;;;;5050270;28;20113;-11
2022/10/04 02:14:31;;;;;;;0.77;0.40;;;20.20;49.20;;;;;;5050199;28;20057;-11
2022/10/04 02:16:59;;;;;;;1.25;0.70;;;20.10;49.20;;;;;;5049366;28;20055;-11
2022/10/04 02:19:32;;;;;;;0.68;0.68;;;20.20;49.30;;;;;;5049501;28;20077;-11
2022/10/04 02:22:01;;;;;;;1.15;0.90;;;20.20;49.30;;;;;;5049805;28;20136;-11
2022/10/04 02:24:28;;;;;;;2.33;1.08;;;20.10;49.20;;;;;;5050037;28;20497;-11
2022/10/04 02:26:53;;;;;;;2.00;0.80;;;20.10;49.20;;;;;;5049853;28;20060;-11
2022/10/04 02:29:20;;;;;;;1.38;0.93;;;20.20;49.30;;;;;;5049613;28;20057;-11
2022/10/04 02:34:35;;;;;;;1.88;0.80;;;20.10;49.20;;;;;;5049951;28;20078;-11
2022/10/04 02:37:03;;;;;;;0.82;0.60;;;20.20;49.30;;;;;;5049555;28;20052;-11
2022/10/04 02:39:52;;;;;;;0.70;0.60;;;20.20;49.30;;;;;;5049496;28;20057;-11
2022/10/04 02:42:27;;;;;;;0.85;0.60;;;20.10;49.20;;;;;;5049581;28;20119;-11
2022/10/04 02:45:03;;;;;;;2.28;0.90;;;20.10;49.20;;;;;;5050134;28;20440;-11
2022/10/04 02:47:39;;;;;;;1.08;0.80;;;20.10;49.20;;;;;;5049105;28;20139;-11
2022/10/04 02:50:18;;;;;;;1.48;0.80;;;20.20;49.30;;;;;;5049716;28;20595;-11
2022/10/04 02:52:49;;;;;;;0.60;0.60;;;20.20;49.20;;;;;;5049689;28;20067;-11
2022/10/04 02:55:28;;;;;;;0.55;0.55;;;20.20;49.20;;;;;;5049664;28;20101;-11
2022/10/04 02:57:56;;;;;;;0.75;0.50;;;20.20;49.20;;;;;;5049407;28;20052;-12
2022/10/04 03:00:26;;;;;;;1.63;0.70;;;20.20;49.20;;;;;;5049051;28;20132;-12
2022/10/04 03:03:09;;;;;;;0.77;0.50;;;20.20;49.20;;;;;;5049529;28;20497;-11
2022/10/04 03:05:35;;;;;;;0.90;0.60;;;20.20;49.10;;;;;;5049748;28;20064;-11
2022/10/04 03:08:03;;;;;;;0.90;0.80;;;20.20;49.00;;;;;;5048977;28;20411;-11
2022/10/04 03:10:29;;;;;;;1.05;0.80;;;20.30;49.00;;;;;;5049376;28;20057;-11
2022/10/04 03:12:55;;;;;;;1.00;0.60;;;20.30;48.90;;;;;;5048963;28;20057;-11
2022/10/04 03:15:21;;;;;;;0.88;0.50;;;20.30;48.80;;;;;;5049588;28;20056;-11
2022/10/04 03:17:49;;;;;;;0.60;0.60;;;20.30;48.80;;;;;;5049417;28;20049;-11
2022/10/04 03:20:20;;;;;;;1.13;0.70;;;20.40;48.80;;;;;;5049105;28;20401;-11
2022/10/04 03:22:49;;;;;;;0.82;0.63;;;20.40;48.70;;;;;;5048958;28;20053;-11
2022/10/04 03:25:21;;;;;;;0.55;0.52;;;20.40;48.60;;;;;;5049470;28;20048;-11
2022/10/04 03:27:49;;;;;;;0.70;0.60;;;20.50;48.50;;;;;;5049550;28;20072;-11
2022/10/04 03:30:16;;;;;;;0.50;0.50;;;20.50;48.40;;;;;;5051874;28;20045;-11
2022/10/04 03:32:42;;;;;;;1.30;0.60;;;20.60;48.50;;;;;;5051925;28;20136;-11
2022/10/04 03:35:34;;;;;;;3.17;0.90;;;20.50;48.40;;;;;;5052187;28;20057;-11
2022/10/04 03:38:03;;;;;;;0.77;0.75;;;20.60;48.50;;;;;;5051908;28;20102;-11
2022/10/04 03:40:31;;;;;;;0.98;0.60;;;20.60;48.40;;;;;;5051712;28;20083;-11
2022/10/04 03:42:59;;;;;;;0.93;0.70;;;20.60;48.40;;;;;;5051741;28;20053;-9
2022/10/04 03:45:27;;;;;;;1.63;0.60;;;20.60;48.40;;;;;;5051971;28;20132;-9
2022/10/04 03:47:57;;;;;;;1.05;0.73;;;20.70;48.30;;;;;;5051686;28;20063;-9
2022/10/04 03:50:32;;;;;;;0.80;0.63;;;20.70;48.30;;;;;;5051673;28;20467;-9
2022/10/04 03:53:03;;;;;;;0.68;0.65;;;20.70;48.20;;;;;;5051955;28;20060;-9
2022/10/04 03:55:35;;;;;;;0.75;0.73;;;20.80;48.20;;;;;;5051990;28;20056;-9
2022/10/04 03:58:01;;;;;;;0.60;0.60;;;20.80;48.30;;;;;;5051977;28;20048;-9
2022/10/04 04:00:27;;;;;;;1.02;0.70;;;20.80;48.20;;;;;;5051465;28;20053;-9
2022/10/04 04:03:01;;;;;;;0.82;0.57;;;20.80;48.10;;;;;;5051848;28;20047;-9
2022/10/04 04:05:43;;;;;;;1.58;0.82;;;20.80;48.20;;;;;;5051799;28;20477;-8
2022/10/04 04:08:16;;;;;;;1.10;0.65;;;20.80;48.10;;;;;;5051839;28;20064;-9
2022/10/04 04:10:50;;;;;;;0.88;0.82;;;20.80;48.10;;;;;;5051456;28;20057;-9
2022/10/04 04:13:27;;;;;;;0.75;0.60;;;20.80;48.10;;;;;;5051792;28;20041;-9
2022/10/04 04:15:59;;;;;;;1.17;0.60;;;20.80;48.00;;;;;;5051622;28;20104;-9
2022/10/04 04:18:29;;;;;;;0.95;0.80;;;20.80;48.00;;;;;;5051346;28;20147;-9
2022/10/04 04:20:57;;;;;;;0.98;0.65;;;20.80;48.00;;;;;;5051575;28;20048;-9
2022/10/04 04:23:27;;;;;;;0.70;0.70;;;20.80;48.00;;;;;;5051361;28;20061;-9
2022/10/04 04:26:00;;;;;;;0.85;0.60;;;20.80;48.00;;;;;;5051324;28;20109;-9
2022/10/04 04:28:31;;;;;;;0.80;0.70;;;20.80;48.10;;;;;;5051499;28;20510;-9
2022/10/04 04:31:26;;;;;;;1.13;0.98;;;20.70;48.10;;;;;;5051484;28;20045;-8
2022/10/04 04:34:00;;;;;;;0.77;0.60;;;20.70;48.10;;;;;;5051090;28;20092;-9
2022/10/04 04:36:28;;;;;;;0.60;0.60;;;20.70;48.00;;;;;;5051036;28;20566;-9
2022/10/04 04:41:52;;;;;;;0.63;0.50;;;20.70;48.20;;;;;;5050886;28;20567;-9
2022/10/04 04:44:18;;;;;;;1.00;0.60;;;20.70;48.20;;;;;;5051012;28;20395;-9
2022/10/04 04:46:47;;;;;;;1.10;0.60;;;20.70;48.30;;;;;;5050950;28;20067;-9
2022/10/04 04:49:16;;;;;;;1.42;0.80;;;20.70;48.30;;;;;;5051038;28;20140;-9
2022/10/04 04:51:50;;;;;;;0.95;0.77;;;20.70;48.30;;;;;;5050875;28;20057;-9
2022/10/04 04:54:23;;;;;;;1.30;0.80;;;20.60;48.30;;;;;;5050829;28;20053;-9
2022/10/04 04:56:51;;;;;;;0.85;0.63;;;20.60;48.40;;;;;;5051124;28;20044;-9
2022/10/04 04:59:23;;;;;;;1.02;0.68;;;20.60;48.40;;;;;;5051109;28;20065;-9
2022/10/04 05:01:49;;;;;;;1.27;0.80;;;20.60;48.50;;;;;;5050842;28;20134;-9
2022/10/04 05:04:21;;;;;;;1.25;1.08;;;20.60;48.40;;;;;;5050624;28;20088;-9
2022/10/04 05:07:02;;;;;;;1.40;0.90;;;20.60;48.50;;;;;;5051388;28;20057;-9
2022/10/04 05:09:31;;;;;;;0.77;0.60;;;20.60;48.50;;;;;;5051229;28;20061;-9
2022/10/04 05:12:15;;;;;;;1.30;0.75;;;20.60;48.50;;;;;;5051054;28;20049;-9
2022/10/04 05:14:46;;;;;;;0.95;0.73;;;20.60;48.50;;;;;;5050629;28;20048;-9
2022/10/04 05:17:32;;;;;;;1.15;0.60;;;20.60;48.40;;;;;;5050956;28;20056;-9
2022/10/04 05:20:00;;;;;;;0.88;0.75;;;20.60;48.50;;;;;;5050690;28;20124;-9
2022/10/04 05:22:27;;;;;;;0.60;0.60;;;20.60;48.40;;;;;;5050899;28;20056;-11
2022/10/04 05:25:09;;;;;;;0.75;0.70;;;20.60;48.40;;;;;;5050323;28;20096;-11
2022/10/04 05:27:37;;;;;;;1.13;0.80;;;20.60;48.40;;;;;;5050499;28;20109;-11
2022/10/04 05:30:27;;;;;;;1.95;1.02;;;20.60;48.40;;;;;;5050106;28;20049;-11
2022/10/04 05:33:01;;;;;;;0.80;0.73;;;20.60;48.30;;;;;;5050547;28;20045;-11
2022/10/04 05:35:28;;;;;;;1.05;0.70;;;20.60;48.30;;;;;;5050690;28;20049;-11
2022/10/04 05:38:22;;;;;;;1.00;0.60;;;20.70;48.90;;;;;;5050290;28;20064;-11
2022/10/04 05:41:05;;;;;;;1.67;1.13;;;20.60;48.30;;;;;;5055067;28;20402;-11
2022/10/04 05:43:44;;;;;;;0.93;0.52;;;20.60;48.30;;;;;;5050300;28;20057;-11
2022/10/04 05:46:24;;;;;;;3.40;0.80;;;20.60;48.30;;;;;;5050187;28;20143;-11
2022/10/04 05:49:10;;;;;;;0.88;0.52;;;20.70;48.30;;;;;;5050320;28;20136;-11
2022/10/04 05:52:02;;;;;;;0.52;0.50;;;20.70;48.20;;;;;;5049182;28;20049;-11
2022/10/04 05:54:31;;;;;;;1.75;0.90;;;20.70;48.20;;;;;;5050736;28;20126;-11
2022/10/04 05:57:15;;;;;;;0.70;0.63;;;20.70;48.20;;;;;;5050006;28;20410;-11
2022/10/04 06:00:07;;;;;;;1.00;0.70;;;20.70;48.20;;;;;;5049837;28;20080;-11
2022/10/04 06:02:59;;;;;;;1.05;0.70;;;20.70;48.10;;;;;;5051332;28;20049;-11
2022/10/04 06:05:36;;;;;;;2.03;0.90;;;20.70;48.10;;;;;;5050186;28;20052;-11
2022/10/04 06:08:42;;;;;;;1.50;0.68;;;20.70;48.10;;;;;;5049836;28;20045;-12
2022/10/04 06:11:37;;;;;;;2.47;0.70;;;20.70;48.10;;;;;;5050842;28;20052;-11
2022/10/04 06:14:18;;;;;;;0.50;0.50;;;20.80;48.10;;;;;;5049683;28;20058;-11
2022/10/04 06:17:02;;;;;;;1.47;0.70;;;20.70;48.10;;;;;;5049571;28;20049;-11
2022/10/04 06:20:10;;;;;;;1.45;0.77;;;20.80;48.20;;;;;;5049476;28;20819;-11
2022/10/04 06:22:43;;;;;;;0.95;0.82;;;20.80;48.20;;;;;;5049840;28;20076;-11
2022/10/04 06:25:25;;;;;;;1.05;0.70;;;20.70;48.20;;;;;;5049599;28;20053;-11
2022/10/04 06:28:08;;;;;;;1.27;0.80;;;20.70;48.20;;;;;;5049584;28;20091;-11
2022/10/04 06:31:14;;;;;;;1.67;0.70;;;20.70;48.20;;;;;;5049345;28;20080;-11
2022/10/04 06:34:11;;;;;;;1.33;0.90;;;20.70;48.20;;;;;;5065622;28;20072;-11
2022/10/04 06:36:55;;;;;;;1.30;0.85;;;20.80;48.20;;;;;;5049391;28;20056;-11
2022/10/04 06:39:36;;;;;;;0.82;0.70;;;20.70;48.10;;;;;;5049333;28;20053;-11
2022/10/04 06:42:26;;;;;;;1.10;0.90;;;20.80;48.10;;;;;;5049677;28;20113;-11
2022/10/04 06:45:22;;;;;;;2.25;0.98;;;20.90;47.90;;;;;;5049265;28;20063;-11
2022/10/04 06:48:06;;;;;;;1.30;0.80;;;21.00;47.60;;;;;;5047733;28;20455;-11
2022/10/04 06:51:02;;;;;;;2.67;0.82;;;21.20;47.40;;;;;;5049090;28;20049;-11
2022/10/04 06:54:02;;;;;;;1.38;0.90;;;21.30;47.20;;;;;;5048696;28;20044;-11
2022/10/04 06:56:54;;;;;;;1.60;0.80;;;21.40;47.00;;;;;;5049584;28;20095;-11
2022/10/04 06:59:40;;;;;;;1.58;0.80;;;21.50;46.80;;;;;;5051283;28;20397;-11
2022/10/04 07:02:19;;;;;;;1.65;0.80;;;21.50;46.50;;;;;;5049897;28;20057;-11
2022/10/04 07:05:21;;;;;;;1.02;0.80;;;21.60;46.30;;;;;;5052291;28;20379;-11
2022/10/04 07:08:05;;;;;;;0.95;0.63;;;21.70;46.20;;;;;;5052220;28;20057;-11
2022/10/04 07:10:37;;;;;;;1.50;0.60;;;21.80;46.20;;;;;;5051898;28;20097;-11
2022/10/04 07:13:09;;;;;;;1.05;0.80;;;21.70;46.10;;;;;;5051998;28;20053;-11
2022/10/04 07:15:56;;;;;;;0.70;0.70;;;21.70;46.40;;;;;;5052056;28;20051;-11
2022/10/04 07:18:27;;;;;;;1.42;0.88;;;21.70;46.20;;;;;;5051573;28;20045;-11
2022/10/04 07:21:03;;;;;;;1.40;0.85;;;21.70;46.20;;;;;;5051839;28;20390;-11
2022/10/04 07:23:35;;;;;;;1.20;0.73;;;21.70;46.20;;;;;;5052035;28;20053;-11
2022/10/04 07:26:12;;;;;;;0.80;0.80;;;21.70;46.90;;;;;;5052228;28;20140;-11
2022/10/04 07:31:28;;;;;;;1.20;0.68;;;21.50;46.50;;;;;;5051716;28;20105;-11
2022/10/04 07:34:16;;;;;;;1.52;1.00;;;21.40;46.60;;;;;;5051700;28;20053;-11
2022/10/04 07:36:50;;;;;;;0.98;0.88;;;21.40;46.70;;;;;;5052221;28;20061;-11
2022/10/04 07:39:22;;;;;;;1.30;1.05;;;21.30;46.90;;;;;;5051403;28;20052;-11
2022/10/04 07:41:52;;;;;;;0.98;0.70;;;21.30;47.00;;;;;;5051532;28;20390;-12
2022/10/04 07:44:38;;;;;;;1.30;0.73;;;21.30;47.10;;;;;;5051607;28;20049;-11
2022/10/04 07:47:26;;;;;;;1.70;1.13;;;21.20;47.20;;;;;;5051410;28;20049;-11
2022/10/04 07:49:53;;;;;;;1.27;1.00;;;21.20;47.20;;;;;;5051291;28;20102;-11
2022/10/04 07:52:47;;;;;;;2.30;1.10;;;21.20;47.30;;;;;;5051481;28;20056;-11
2022/10/04 07:55:36;;;;;;;1.67;0.75;;;21.20;47.30;;;;;;5051019;28;20117;-11
2022/10/04 07:58:17;;;;;;;1.08;0.88;;;21.20;47.30;;;;;;5049949;28;20131;-11
2022/10/04 08:01:00;;;;;;;1.33;0.95;;;21.20;47.40;;;;;;5050801;28;20048;-11
2022/10/04 08:03:49;;;;;;;1.15;0.88;;;21.20;47.40;;;;;;5051157;28;20049;-11
2022/10/04 08:06:36;;;;;;;1.35;0.80;;;21.10;47.40;;;;;;5051519;28;20110;-11
2022/10/04 08:09:23;;;;;;;1.30;1.00;;;21.10;47.50;;;;;;5051049;28;20049;-11
2022/10/04 08:12:14;;;;;;;3.13;0.95;;;21.10;47.60;;;;;;5033365;28;20049;-11
2022/10/04 08:15:04;;;;;;;2.10;0.80;;;21.10;47.60;;;;;;5050471;28;20106;-11
2022/10/04 08:17:50;;;;;;;1.30;1.00;;;21.10;48.00;;;;;;5050437;28;20748;-12
2022/10/04 08:20:22;;;;;;;3.70;1.40;;;21.10;47.70;;;;;;5049130;28;20460;-11
2022/10/04 08:23:06;;;;;;;1.70;1.02;;;21.10;47.80;;;;;;5050821;28;20057;-11
2022/10/04 08:25:46;;;;;;;1.75;1.13;;;21.10;47.80;;;;;;5051146;28;20053;-11
2022/10/04 08:32:05;;;;;;;2.78;1.10;;;21.10;47.80;;;;;;5050566;28;20153;-12
2022/10/04 08:34:45;;;;;;;1.58;1.00;;;21.10;47.80;;;;;;5059806;28;20125;-11
2022/10/04 08:37:52;;;;;;;1.27;0.70;;;21.10;47.80;;;;;;5049352;28;20053;-12
2022/10/04 08:40:35;;;;;;;1.40;1.02;;;21.20;47.90;;;;;;5049527;28;20448;-12
2022/10/04 08:43:19;;;;;;;1.27;0.90;;;21.10;47.90;;;;;;5049314;28;20053;-11
2022/10/04 08:46:05;;;;;;;2.35;1.25;;;21.20;47.90;;;;;;5048821;28;20064;-11
2022/10/04 08:48:48;;;;;;;1.05;0.90;;;21.20;47.80;;;;;;5050840;28;20045;-12
2022/10/04 08:51:52;;;;;;;2.08;1.10;;;21.20;47.90;;;;;;5050687;28;20088;-11
2022/10/04 08:54:34;;;;;;;3.33;1.30;;;21.20;47.90;;;;;;5050564;28;20137;-11
2022/10/04 08:57:25;;;;;;;1.58;1.00;;;21.20;48.00;;;;;;5050382;28;20064;-11
2022/10/04 09:00:12;;;;;;;;;;;21.20;47.90;;;;;;5049978;28;20049;-12
2022/10/04 09:03:03;;;;;;;1.42;0.90;;;21.20;47.90;;;;;;5049365;28;19992;-11
2022/10/04 09:05:57;;;;;;;5.63;1.30;;;21.20;47.90;;;;;;5050641;28;20053;-10
2022/10/04 09:09:00;;;;;;;2.60;1.00;;;21.20;48.00;;;;;;5050840;28;20057;-10
2022/10/04 09:12:02;;;;;;;1.65;1.08;;;21.20;48.00;;;;;;5050185;28;20052;-10
2022/10/04 09:14:30;;;;;;;2.42;1.20;;;21.20;48.10;;;;;;5050410;28;20064;-11
2022/10/04 09:17:19;;;;;;;1.73;1.20;;;21.20;48.20;;;;;;5049227;28;20153;-12
2022/10/04 09:20:12;;;;;;;1.83;1.20;;;21.20;48.10;;;;;;5049979;28;20064;-10
2022/10/04 09:23:07;;;;;;;1.92;1.13;;;21.20;48.00;;;;;;5050045;28;20056;-10
2022/10/04 09:25:58;;;;;;;1.45;1.00;;;21.20;48.00;;;;;;5047985;28;20486;-11
2022/10/04 09:29:05;;;;;;;5.18;1.30;;;21.20;48.00;;;;;;5047530;28;20060;-12
2022/10/04 09:31:56;;;;;;;2.75;1.30;;;21.20;47.90;;;;;;5048214;28;20049;-11
2022/10/04 09:34:33;;;;;;;2.63;1.43;;;21.20;47.90;;;;;;5047988;28;20056;-12
2022/10/04 09:37:07;;;;;;;4.63;1.30;;;21.30;47.90;;;;;;5048899;28;20529;-11
2022/10/04 09:40:02;;;;;;;1.58;1.30;;;21.20;47.80;;;;;;5049123;28;20048;-12
2022/10/04 09:42:49;;;;;;;2.58;1.45;;;21.20;47.90;;;;;;5050473;28;20048;-10
2022/10/04 09:45:45;;;;;;;2.35;1.23;;;21.30;47.90;;;;;;5050439;28;20109;-10
2022/10/04 09:48:14;;;;;;;1.58;1.05;;;21.20;47.90;;;;;;5050461;28;20071;-11
2022/10/04 09:51:26;;;;;;;3.30;1.17;;;21.20;47.80;;;;;;5050046;28;20046;-11
2022/10/04 09:54:18;;;;;;;4.55;1.30;;;21.30;48.00;;;;;;5070349;28;20056;-10
2022/10/04 09:56:50;;;;;;;1.85;1.10;;;21.30;48.00;;;;;;5048018;28;20049;-10
2022/10/04 09:59:56;;;;;;;2.78;1.45;;;21.30;48.00;;;;;;5192812;27;20168;-11
2022/10/04 10:02:39;;;;;;;3.13;1.38;;;21.30;48.00;;;;;;5171471;27;20486;-11
2022/10/04 10:05:44;;;;;;;1.95;1.30;;;21.30;48.00;;;;;;5171737;27;20061;-12
2022/10/04 10:08:38;;;;;;;1.63;1.15;;;21.30;48.00;;;;;;5171343;27;20047;-11
2022/10/04 10:14:42;;;;;;;4.00;1.20;;;21.30;48.00;;;;;;5171349;27;20053;-11
2022/10/04 10:17:19;;;;;;;2.25;1.20;;;21.30;47.90;;;;;;5171120;27;20095;-11
2022/10/04 10:20:28;;;;;;;3.38;1.10;;;21.30;48.00;;;;;;5170846;27;20409;-11
2022/10/04 10:23:10;;;;;;;3.13;1.33;;;21.30;48.00;;;;;;5170919;27;20046;-11
2022/10/04 10:25:57;;;;;;;2.65;1.10;;;21.20;48.10;;;;;;5170661;27;20050;-11
2022/10/04 10:28:54;;;;;;;3.83;1.25;;;21.20;48.20;;;;;;5169208;27;20046;-12
2022/10/04 10:31:23;;;;;;;5.00;1.27;;;21.20;48.10;;;;;;5170616;27;20141;-11
2022/10/04 10:34:05;;;;;;;2.35;1.30;;;21.20;48.00;;;;;;5170338;27;20142;-13
2022/10/04 10:36:50;;;;;;;2.85;1.40;;;21.20;48.20;;;;;;5171125;27;20046;-11
2022/10/04 10:39:31;;;;;;;2.33;1.23;;;21.20;47.90;;;;;;5170621;27;20616;-12
2022/10/04 10:42:41;;;;;;;2.42;1.10;;;21.20;47.90;;;;;;5170695;27;20053;-11
2022/10/04 10:45:34;;;;;;;3.58;1.83;;;21.20;47.90;;;;;;5062878;28;20138;-12
2022/10/04 10:48:23;;;;;;;1.60;1.10;;;21.20;47.80;;;;;;5165751;27;20057;-14
2022/10/04 10:51:00;;;;;;;3.17;1.33;;;21.30;47.90;;;;;;5169375;27;20043;-12
2022/10/04 10:54:17;;;;;;;3.80;1.30;;;21.30;47.90;;;;;;5170084;27;20077;-12
2022/10/04 10:57:05;;;;;;;2.83;1.20;;;21.30;47.80;;;;;;5112711;27;20099;-12
2022/10/04 10:59:37;;;;;;;1.90;1.25;;;21.30;47.80;;;;;;5170309;27;20043;-11
2022/10/04 11:02:42;;;;;;;2.08;1.10;;;21.20;47.70;;;;;;5170612;27;20046;-11
2022/10/04 11:05:23;;;;;;;2.63;1.10;;;21.30;47.70;;;;;;5149841;27;20054;-13
2022/10/04 11:07:54;;;;;;;2.55;1.17;;;21.30;47.70;;;;;;5169505;27;20073;-11
2022/10/04 11:10:32;;;;;;;1.92;1.20;;;21.20;47.70;;;;;;5159115;27;20055;-11
2022/10/04 11:13:37;;;;;;;2.30;1.10;;;21.20;47.70;;;;;;5156910;27;20047;-11
2022/10/04 11:16:34;;;;;;;2.75;1.08;;;21.30;47.80;;;;;;5137925;27;20405;-11
2022/10/04 11:19:22;;;;;;;2.03;1.10;;;21.20;47.70;;;;;;5156261;27;20046;-11
2022/10/04 11:21:54;;;;;;;2.05;1.00;;;21.30;47.70;;;;;;5153995;27;20118;-12
2022/10/04 11:24:54;;;;;;;1.77;1.20;;;21.30;47.60;;;;;;5153771;27;20490;-12
2022/10/04 11:27:48;;;;;;;1.52;1.10;;;21.30;47.60;;;;;;5153934;27;20043;-12
2022/10/04 11:30:25;;;;;;;2.58;1.17;;;21.30;47.60;;;;;;5153722;27;20051;-13
2022/10/04 11:33:37;;;;;;;1.40;1.08;;;21.30;47.50;;;;;;5153774;27;20046;-13
2022/10/04 11:36:31;;;;;;;2.55;0.90;;;21.30;47.50;;;;;;5154774;27;20050;-11
2022/10/04 11:39:29;;;;;;;1.35;1.15;;;21.30;48.00;;;;;;5155760;27;20046;-11
2022/10/04 11:42:25;;;;;;;2.08;1.30;;;21.30;47.40;;;;;;5156571;27;20051;-11
2022/10/04 11:45:13;;;;;;;2.15;1.00;;;21.30;47.40;;;;;;5155873;27;20046;-11
2022/10/04 11:48:16;;;;;;;1.98;0.90;;;21.30;47.40;;;;;;5155862;27;20446;-11
2022/10/04 11:51:28;;;;;;;2.40;1.27;;;21.30;47.40;;;;;;5155923;27;20159;-11
2022/10/04 11:54:27;;;;;;;4.00;1.63;;;21.30;47.40;;;;;;5155417;27;20053;-11
2022/10/04 11:57:25;;;;;;;1.90;1.10;;;21.30;47.30;;;;;;5156022;27;20442;-11
2022/10/04 12:00:15;;;;;;;1.67;1.15;;;21.30;47.20;;;;;;5155635;27;20053;-11
2022/10/04 12:03:09;;;;;;;1.80;0.90;;;21.30;47.20;;;;;;5155842;27;20119;-11
2022/10/04 12:05:50;;;;;;;1.80;1.20;;;21.30;47.20;;;;;;5155895;27;20054;-11
2022/10/04 12:08:42;;;;;;;1.23;1.10;;;21.30;47.20;;;;;;5155510;27;20376;-11
2022/10/04 12:14:33;;;;;;;2.60;1.10;;;21.30;47.20;;;;;;5155981;27;20076;-11
2022/10/04 12:17:37;;;;;;;1.20;1.08;;;21.30;47.30;;;;;;5155363;27;20047;-12
2022/10/04 12:20:37;;;;;;;1.65;1.23;;;21.30;47.20;;;;;;5155055;27;20464;-11
2022/10/04 12:23:10;;;;;;;1.63;1.02;;;21.30;47.30;;;;;;5154950;27;20475;-11
2022/10/04 12:25:57;;;;;;;2.03;0.88;;;21.30;47.30;;;;;;5155269;27;20101;-11
2022/10/04 12:28:47;;;;;;;2.08;1.20;;;21.30;47.20;;;;;;5155124;27;20058;-11
2022/10/04 12:31:30;;;;;;;1.75;1.15;;;21.30;47.20;;;;;;5155485;27;20081;-11
2022/10/04 12:34:13;;;;;;;1.92;1.10;;;21.30;47.30;;;;;;5155475;27;20517;-11
2022/10/04 12:36:59;;;;;;;2.33;1.10;;;21.30;47.30;;;;;;5155449;27;20047;-11
2022/10/04 12:39:49;;;;;;;1.80;1.20;;;21.30;47.20;;;;;;5154992;27;20420;-11
2022/10/04 12:42:46;;;;;;;3.00;1.27;;;21.30;47.20;;;;;;5155248;27;20167;-11
2022/10/04 12:45:19;;;;;;;2.83;1.00;;;21.30;47.20;;;;;;5154712;27;20058;-11
2022/10/04 12:48:01;;;;;;;1.73;1.00;;;21.30;47.20;;;;;;5155135;27;20466;-11
2022/10/04 12:50:36;;;;;;;2.58;1.25;;;21.30;47.20;;;;;;5154891;27;20047;-11
2022/10/04 12:53:33;;;;;;;0.75;0.75;;;21.30;47.20;;;;;;5155196;27;20039;-11
2022/10/04 12:56:27;;;;;;;1.55;1.20;;;21.30;47.20;;;;;;5146922;27;20050;-10
2022/10/04 12:59:23;;;;;;;1.70;1.38;;;21.30;47.20;;;;;;5154854;27;20054;-10
2022/10/04 13:02:14;;;;;;;1.38;1.00;;;21.30;47.20;;;;;;5154857;27;20050;-10
2022/10/04 13:04:50;;;;;;;3.33;1.25;;;21.30;47.20;;;;;;5154785;27;20130;-10
2022/10/04 13:07:39;;;;;;;1.95;0.90;;;21.30;47.20;;;;;;5154556;27;20486;-10
2022/10/04 13:10:27;;;;;;;1.60;1.00;;;21.30;47.20;;;;;;5154404;27;20054;-10
2022/10/04 13:13:09;;;;;;;1.75;1.30;;;21.30;47.30;;;;;;5154503;27;20047;-11
2022/10/04 13:15:43;;;;;;;1.42;0.90;;;21.30;47.30;;;;;;5135508;27;20073;-11
2022/10/04 13:18:18;;;;;;;0.98;0.85;;;21.20;47.30;;;;;;5154726;27;20039;-10
2022/10/04 13:20:55;;;;;;;1.90;1.10;;;21.20;47.30;;;;;;5154637;27;20066;-10
2022/10/04 13:23:48;;;;;;;2.97;1.10;;;21.30;47.40;;;;;;5154489;27;20046;-10
2022/10/04 13:26:22;;;;;;;4.22;1.67;;;21.20;47.30;;;;;;5153745;27;20042;-10
2022/10/04 13:29:12;;;;;;;1.20;1.10;;;21.30;47.40;;;;;;5153955;27;20076;-10
2022/10/04 13:31:50;;;;;;;1.42;0.88;;;21.20;47.40;;;;;;5154296;27;20047;-10
2022/10/04 13:34:47;;;;;;;2.05;1.20;;;21.20;47.40;;;;;;5153972;27;20406;-10
2022/10/04 13:37:27;;;;;;;1.45;0.82;;;21.20;47.40;;;;;;5153917;27;20050;-10
2022/10/04 13:40:23;;;;;;;2.88;1.20;;;21.30;47.40;;;;;;5154541;27;20042;-10
2022/10/04 13:43:15;;;;;;;1.20;1.00;;;21.20;47.30;;;;;;5154054;27;20501;-10
2022/10/04 13:46:17;;;;;;;1.52;1.10;;;21.30;47.40;;;;;;5152732;27;20046;-11
2022/10/04 13:49:20;;;;;;;2.08;1.10;;;21.20;47.30;;;;;;5153831;27;20054;-10
2022/10/04 13:58:20;;;;;;;1.48;0.98;;;21.20;47.30;;;;;;5153915;27;20047;-12
2022/10/04 14:01:07;;;;;;;1.40;0.82;;;21.20;47.40;;;;;;5154025;27;20054;-11
2022/10/04 14:03:58;;;;;;;2.95;1.13;;;21.20;47.50;;;;;;5153888;27;20038;-11
2022/10/04 14:07:00;;;;;;;2.70;1.10;;;21.20;47.50;;;;;;5153894;27;20050;-11
2022/10/04 14:09:32;;;;;;;1.70;1.13;;;21.20;47.50;;;;;;5154026;27;20570;-11
2022/10/04 14:12:34;;;;;;;2.90;1.20;;;21.20;47.50;;;;;;5154222;27;20046;-11
2022/10/04 14:15:16;;;;;;;2.67;1.05;;;21.20;47.50;;;;;;5153842;27;20042;-11
2022/10/04 14:18:00;;;;;;;6.85;1.30;;;21.20;47.50;;;;;;5153975;27;20043;-11
2022/10/04 14:21:04;;;;;;;4.30;1.00;;;21.20;47.50;;;;;;5153800;27;20062;-11
2022/10/04 14:23:33;;;;;;;1.10;1.00;;;21.20;47.40;;;;;;5153595;27;20050;-11
2022/10/04 14:26:22;;;;;;;1.50;1.20;;;21.20;47.50;;;;;;5151989;27;20557;-13
2022/10/04 14:28:57;;;;;;;3.55;1.40;;;21.20;47.60;;;;;;5152793;27;20050;-11